sensor_id;sensor_type;location;lat;lon;timestamp;temperature;humidity
9776;DHT22;4927;52.472;13.108;2023-05-07T00:00:54;8.60;99.90
9776;DHT22;4927;52.472;13.108;2023-05-07T00:01:56;8.60;99.90
9776;DHT22;4927;52.472;13.108;2023-05-07T00:02:57;8.60;99.90
9776;DHT22;4927;52.472;13.108;2023-05-07T00:03:59;8.60;99.90
9776;DHT22;4927;52.472;13.108;2023-05-07T00:05:01;8.60;99.90
9776;DHT22;4927;52.472;13.108;2023-05-07T00:06:03;8.60;99.90
9776;DHT22;4927;52.472;13.108;2023-05-07T00:07:04;8.50;99.90
9776;DHT22;4927;52.472;13.108;2023-05-07T00:08:06;8.60;99.90
9776;DHT22;4927;52.472;13.108;2023-05-07T00:09:07;8.60;99.90
9776;DHT22;4927;52.472;13.108;2023-05-07T00:10:10;8.60;99.90
9776;DHT22;4927;52.472;13.108;2023-05-07T00:11:11;8.60;99.90
9776;DHT22;4927;52.472;13.108;2023-05-07T00:12:13;8.60;99.90
9776;DHT22;4927;52.472;13.108;2023-05-07T00:13:15;8.60;99.90
9776;DHT22;4927;52.472;13.108;2023-05-07T00:14:16;8.60;99.90
9776;DHT22;4927;52.472;13.108;2023-05-07T00:15:18;8.60;99.90
9776;DHT22;4927;52.472;13.108;2023-05-07T00:16:20;8.60;99.90
9776;DHT22;4927;52.472;13.108;2023-05-07T00:17:22;8.60;99.90
9776;DHT22;4927;52.472;13.108;2023-05-07T00:18:23;8.60;99.90
9776;DHT22;4927;52.472;13.108;2023-05-07T00:19:25;8.60;99.90
9776;DHT22;4927;52.472;13.108;2023-05-07T00:20:27;8.60;99.90
9776;DHT22;4927;52.472;13.108;2023-05-07T00:21:28;8.60;99.90
9776;DHT22;4927;52.472;13.108;2023-05-07T00:22:30;8.60;99.90
9776;DHT22;4927;52.472;13.108;2023-05-07T00:23:32;8.60;99.90
9776;DHT22;4927;52.472;13.108;2023-05-07T00:24:34;8.60;99.90
9776;DHT22;4927;52.472;13.108;2023-05-07T00:25:35;8.60;99.90
9776;DHT22;4927;52.472;13.108;2023-05-07T00:26:37;8.60;99.90
9776;DHT22;4927;52.472;13.108;2023-05-07T00:27:39;8.60;99.90
9776;DHT22;4927;52.472;13.108;2023-05-07T00:28:40;8.60;99.90
9776;DHT22;4927;52.472;13.108;2023-05-07T00:29:42;8.60;99.90
9776;DHT22;4927;52.472;13.108;2023-05-07T00:30:44;8.60;99.90
9776;DHT22;4927;52.472;13.108;2023-05-07T00:31:45;8.60;99.90
9776;DHT22;4927;52.472;13.108;2023-05-07T00:32:47;8.60;99.90
9776;DHT22;4927;52.472;13.108;2023-05-07T00:33:48;8.60;99.90
9776;DHT22;4927;52.472;13.108;2023-05-07T00:34:50;8.60;99.90
9776;DHT22;4927;52.472;13.108;2023-05-07T00:35:52;8.60;99.90
9776;DHT22;4927;52.472;13.108;2023-05-07T00:36:53;8.60;99.90
9776;DHT22;4927;52.472;13.108;2023-05-07T00:37:55;8.60;99.90
9776;DHT22;4927;52.472;13.108;2023-05-07T00:38:59;8.60;99.90
9776;DHT22;4927;52.472;13.108;2023-05-07T00:39:59;8.60;99.90
9776;DHT22;4927;52.472;13.108;2023-05-07T00:41:01;8.60;99.90
9776;DHT22;4927;52.472;13.108;2023-05-07T00:42:02;8.60;99.90
9776;DHT22;4927;52.472;13.108;2023-05-07T00:43:04;8.60;99.90
9776;DHT22;4927;52.472;13.108;2023-05-07T00:44:06;8.60;99.90
9776;DHT22;4927;52.472;13.108;2023-05-07T00:45:08;8.60;99.90
9776;DHT22;4927;52.472;13.108;2023-05-07T00:46:10;8.60;99.90
9776;DHT22;4927;52.472;13.108;2023-05-07T00:47:12;8.60;99.90
9776;DHT22;4927;52.472;13.108;2023-05-07T00:48:14;8.60;99.90
9776;DHT22;4927;52.472;13.108;2023-05-07T00:49:15;8.60;99.90
9776;DHT22;4927;52.472;13.108;2023-05-07T00:50:17;8.60;99.90
9776;DHT22;4927;52.472;13.108;2023-05-07T00:51:19;8.70;99.90
9776;DHT22;4927;52.472;13.108;2023-05-07T00:52:20;8.70;99.90
9776;DHT22;4927;52.472;13.108;2023-05-07T00:53:22;8.70;99.90
9776;DHT22;4927;52.472;13.108;2023-05-07T00:54:23;8.70;99.90
9776;DHT22;4927;52.472;13.108;2023-05-07T00:55:25;8.70;99.90
9776;DHT22;4927;52.472;13.108;2023-05-07T00:56:27;8.70;99.90
9776;DHT22;4927;52.472;13.108;2023-05-07T00:57:29;8.70;99.90
9776;DHT22;4927;52.472;13.108;2023-05-07T00:58:31;8.70;99.90
9776;DHT22;4927;52.472;13.108;2023-05-07T00:59:32;8.70;99.90
9776;DHT22;4927;52.472;13.108;2023-05-07T01:00:34;8.70;99.90
9776;DHT22;4927;52.472;13.108;2023-05-07T01:01:36;8.70;99.90
9776;DHT22;4927;52.472;13.108;2023-05-07T01:02:39;8.70;99.90
9776;DHT22;4927;52.472;13.108;2023-05-07T01:03:41;8.70;99.90
9776;DHT22;4927;52.472;13.108;2023-05-07T01:04:43;8.70;99.90
9776;DHT22;4927;52.472;13.108;2023-05-07T01:05:45;8.70;99.90
9776;DHT22;4927;52.472;13.108;2023-05-07T01:06:46;8.70;99.90
9776;DHT22;4927;52.472;13.108;2023-05-07T01:07:48;8.70;99.90
9776;DHT22;4927;52.472;13.108;2023-05-07T01:08:49;8.70;99.90
9776;DHT22;4927;52.472;13.108;2023-05-07T01:09:51;8.70;99.90
9776;DHT22;4927;52.472;13.108;2023-05-07T01:10:53;8.70;99.90
9776;DHT22;4927;52.472;13.108;2023-05-07T01:11:55;8.70;99.90
9776;DHT22;4927;52.472;13.108;2023-05-07T01:12:57;8.70;99.90
9776;DHT22;4927;52.472;13.108;2023-05-07T01:13:58;8.70;99.90
9776;DHT22;4927;52.472;13.108;2023-05-07T01:14:59;8.70;99.90
9776;DHT22;4927;52.472;13.108;2023-05-07T01:16:01;8.70;99.90
9776;DHT22;4927;52.472;13.108;2023-05-07T01:17:04;8.70;99.90
9776;DHT22;4927;52.472;13.108;2023-05-07T01:18:05;8.70;99.90
9776;DHT22;4927;52.472;13.108;2023-05-07T01:19:07;8.70;99.90
9776;DHT22;4927;52.472;13.108;2023-05-07T01:20:10;8.70;99.90
9776;DHT22;4927;52.472;13.108;2023-05-07T01:21:12;8.70;99.90
9776;DHT22;4927;52.472;13.108;2023-05-07T01:22:14;8.70;99.90
9776;DHT22;4927;52.472;13.108;2023-05-07T01:23:15;8.70;99.90
9776;DHT22;4927;52.472;13.108;2023-05-07T01:24:17;8.70;99.90
9776;DHT22;4927;52.472;13.108;2023-05-07T01:25:18;8.70;99.90
9776;DHT22;4927;52.472;13.108;2023-05-07T01:26:20;8.70;99.90
9776;DHT22;4927;52.472;13.108;2023-05-07T01:27:22;8.60;99.90
9776;DHT22;4927;52.472;13.108;2023-05-07T01:28:24;8.60;99.90
9776;DHT22;4927;52.472;13.108;2023-05-07T01:29:25;8.70;99.90
9776;DHT22;4927;52.472;13.108;2023-05-07T01:30:27;8.70;99.90
9776;DHT22;4927;52.472;13.108;2023-05-07T01:31:29;8.70;99.90
9776;DHT22;4927;52.472;13.108;2023-05-07T01:32:34;8.70;99.90
9776;DHT22;4927;52.472;13.108;2023-05-07T01:33:34;8.70;99.90
9776;DHT22;4927;52.472;13.108;2023-05-07T01:34:36;8.70;99.90
9776;DHT22;4927;52.472;13.108;2023-05-07T01:35:40;8.70;99.90
9776;DHT22;4927;52.472;13.108;2023-05-07T01:36:40;8.70;99.90
9776;DHT22;4927;52.472;13.108;2023-05-07T01:37:42;8.70;99.90
9776;DHT22;4927;52.472;13.108;2023-05-07T01:38:44;8.70;99.90
9776;DHT22;4927;52.472;13.108;2023-05-07T01:39:46;8.70;99.90
9776;DHT22;4927;52.472;13.108;2023-05-07T01:40:48;8.70;99.90
9776;DHT22;4927;52.472;13.108;2023-05-07T01:41:49;8.70;99.90
9776;DHT22;4927;52.472;13.108;2023-05-07T01:42:51;8.70;99.90
9776;DHT22;4927;52.472;13.108;2023-05-07T01:43:54;8.70;99.90
9776;DHT22;4927;52.472;13.108;2023-05-07T01:44:55;8.70;99.90
9776;DHT22;4927;52.472;13.108;2023-05-07T01:45:57;8.70;99.90
9776;DHT22;4927;52.472;13.108;2023-05-07T01:46:58;8.70;99.90
9776;DHT22;4927;52.472;13.108;2023-05-07T01:48:01;8.70;99.90
9776;DHT22;4927;52.472;13.108;2023-05-07T01:49:02;8.70;99.90
9776;DHT22;4927;52.472;13.108;2023-05-07T01:50:05;8.70;99.90
9776;DHT22;4927;52.472;13.108;2023-05-07T01:51:07;8.70;99.90
9776;DHT22;4927;52.472;13.108;2023-05-07T01:52:10;8.70;99.90
9776;DHT22;4927;52.472;13.108;2023-05-07T01:53:11;8.70;99.90
9776;DHT22;4927;52.472;13.108;2023-05-07T01:54:12;8.70;99.90
9776;DHT22;4927;52.472;13.108;2023-05-07T01:55:14;8.70;99.90
9776;DHT22;4927;52.472;13.108;2023-05-07T01:56:17;8.70;99.90
9776;DHT22;4927;52.472;13.108;2023-05-07T01:57:25;8.70;99.90
9776;DHT22;4927;52.472;13.108;2023-05-07T01:58:27;8.70;99.90
9776;DHT22;4927;52.472;13.108;2023-05-07T01:59:29;8.70;99.90
9776;DHT22;4927;52.472;13.108;2023-05-07T02:00:31;8.70;99.90
9776;DHT22;4927;52.472;13.108;2023-05-07T02:01:32;8.70;99.90
9776;DHT22;4927;52.472;13.108;2023-05-07T02:02:34;8.70;99.90
9776;DHT22;4927;52.472;13.108;2023-05-07T02:03:36;8.70;99.90
9776;DHT22;4927;52.472;13.108;2023-05-07T02:04:37;8.70;99.90
9776;DHT22;4927;52.472;13.108;2023-05-07T02:05:40;8.80;99.90
9776;DHT22;4927;52.472;13.108;2023-05-07T02:06:41;8.70;99.90
9776;DHT22;4927;52.472;13.108;2023-05-07T02:07:43;8.70;99.90
9776;DHT22;4927;52.472;13.108;2023-05-07T02:08:44;8.70;99.90
9776;DHT22;4927;52.472;13.108;2023-05-07T02:09:46;8.70;99.90
9776;DHT22;4927;52.472;13.108;2023-05-07T02:10:48;8.70;99.90
9776;DHT22;4927;52.472;13.108;2023-05-07T02:11:50;8.70;99.90
9776;DHT22;4927;52.472;13.108;2023-05-07T02:12:52;8.70;99.90
9776;DHT22;4927;52.472;13.108;2023-05-07T02:13:54;8.70;99.90
9776;DHT22;4927;52.472;13.108;2023-05-07T02:14:56;8.70;99.90
9776;DHT22;4927;52.472;13.108;2023-05-07T02:15:57;8.70;99.90
9776;DHT22;4927;52.472;13.108;2023-05-07T02:16:59;8.70;99.90
9776;DHT22;4927;52.472;13.108;2023-05-07T02:18:04;8.70;99.90
9776;DHT22;4927;52.472;13.108;2023-05-07T02:19:05;8.60;99.90
9776;DHT22;4927;52.472;13.108;2023-05-07T02:20:07;8.60;99.90
9776;DHT22;4927;52.472;13.108;2023-05-07T02:21:09;8.60;99.90
9776;DHT22;4927;52.472;13.108;2023-05-07T02:22:11;8.60;99.90
9776;DHT22;4927;52.472;13.108;2023-05-07T02:23:12;8.60;99.90
9776;DHT22;4927;52.472;13.108;2023-05-07T02:24:14;8.60;99.90
9776;DHT22;4927;52.472;13.108;2023-05-07T02:25:16;8.60;99.90
9776;DHT22;4927;52.472;13.108;2023-05-07T02:26:17;8.60;99.90
9776;DHT22;4927;52.472;13.108;2023-05-07T02:27:19;8.60;99.90
9776;DHT22;4927;52.472;13.108;2023-05-07T02:28:21;8.60;99.90
9776;DHT22;4927;52.472;13.108;2023-05-07T02:29:23;8.60;99.90
9776;DHT22;4927;52.472;13.108;2023-05-07T02:30:25;8.60;99.90
9776;DHT22;4927;52.472;13.108;2023-05-07T02:31:26;8.60;99.90
9776;DHT22;4927;52.472;13.108;2023-05-07T02:32:28;8.60;99.90
9776;DHT22;4927;52.472;13.108;2023-05-07T02:33:29;8.60;99.90
9776;DHT22;4927;52.472;13.108;2023-05-07T02:34:31;8.60;99.90
9776;DHT22;4927;52.472;13.108;2023-05-07T02:35:33;8.60;99.90
9776;DHT22;4927;52.472;13.108;2023-05-07T02:36:34;8.60;99.90
9776;DHT22;4927;52.472;13.108;2023-05-07T02:37:36;8.60;99.90
9776;DHT22;4927;52.472;13.108;2023-05-07T02:38:38;8.60;99.90
9776;DHT22;4927;52.472;13.108;2023-05-07T02:39:39;8.60;99.90
9776;DHT22;4927;52.472;13.108;2023-05-07T02:40:41;8.60;99.90
9776;DHT22;4927;52.472;13.108;2023-05-07T02:41:42;8.60;99.90
9776;DHT22;4927;52.472;13.108;2023-05-07T02:42:44;8.60;99.90
9776;DHT22;4927;52.472;13.108;2023-05-07T02:43:46;8.60;99.90
9776;DHT22;4927;52.472;13.108;2023-05-07T02:44:47;8.60;99.90
9776;DHT22;4927;52.472;13.108;2023-05-07T02:45:49;8.60;99.90
9776;DHT22;4927;52.472;13.108;2023-05-07T02:46:51;8.60;99.90
9776;DHT22;4927;52.472;13.108;2023-05-07T02:47:53;8.60;99.90
9776;DHT22;4927;52.472;13.108;2023-05-07T02:48:55;8.60;99.90
9776;DHT22;4927;52.472;13.108;2023-05-07T02:49:56;8.60;99.90
9776;DHT22;4927;52.472;13.108;2023-05-07T02:50:59;8.60;99.90
9776;DHT22;4927;52.472;13.108;2023-05-07T02:52:00;8.60;99.90
9776;DHT22;4927;52.472;13.108;2023-05-07T02:53:02;8.60;99.90
9776;DHT22;4927;52.472;13.108;2023-05-07T02:54:04;8.60;99.90
9776;DHT22;4927;52.472;13.108;2023-05-07T02:55:07;8.60;99.90
9776;DHT22;4927;52.472;13.108;2023-05-07T02:56:09;8.60;99.90
9776;DHT22;4927;52.472;13.108;2023-05-07T02:57:11;8.60;99.90
9776;DHT22;4927;52.472;13.108;2023-05-07T02:58:13;8.60;99.90
9776;DHT22;4927;52.472;13.108;2023-05-07T02:59:14;8.60;99.90
9776;DHT22;4927;52.472;13.108;2023-05-07T03:00:17;8.60;99.90
9776;DHT22;4927;52.472;13.108;2023-05-07T03:01:18;8.60;99.90
9776;DHT22;4927;52.472;13.108;2023-05-07T03:02:20;8.60;99.90
9776;DHT22;4927;52.472;13.108;2023-05-07T03:03:22;8.50;99.90
9776;DHT22;4927;52.472;13.108;2023-05-07T03:04:23;8.60;99.90
9776;DHT22;4927;52.472;13.108;2023-05-07T03:05:25;8.60;99.90
9776;DHT22;4927;52.472;13.108;2023-05-07T03:06:26;8.60;99.90
9776;DHT22;4927;52.472;13.108;2023-05-07T03:07:29;8.60;99.90
9776;DHT22;4927;52.472;13.108;2023-05-07T03:08:30;8.60;99.90
9776;DHT22;4927;52.472;13.108;2023-05-07T03:09:32;8.60;99.90
9776;DHT22;4927;52.472;13.108;2023-05-07T03:10:34;8.50;99.90
9776;DHT22;4927;52.472;13.108;2023-05-07T03:11:36;8.50;99.90
9776;DHT22;4927;52.472;13.108;2023-05-07T03:12:37;8.60;99.90
9776;DHT22;4927;52.472;13.108;2023-05-07T03:13:39;8.60;99.90
9776;DHT22;4927;52.472;13.108;2023-05-07T03:14:40;8.50;99.90
9776;DHT22;4927;52.472;13.108;2023-05-07T03:15:42;8.50;99.90
9776;DHT22;4927;52.472;13.108;2023-05-07T03:16:44;8.60;99.90
9776;DHT22;4927;52.472;13.108;2023-05-07T03:17:46;8.60;99.90
9776;DHT22;4927;52.472;13.108;2023-05-07T03:18:48;8.50;99.90
9776;DHT22;4927;52.472;13.108;2023-05-07T03:19:49;8.50;99.90
9776;DHT22;4927;52.472;13.108;2023-05-07T03:20:52;8.50;99.90
9776;DHT22;4927;52.472;13.108;2023-05-07T03:21:53;8.50;99.90
9776;DHT22;4927;52.472;13.108;2023-05-07T03:22:55;8.50;99.90
9776;DHT22;4927;52.472;13.108;2023-05-07T03:23:56;8.50;99.90
9776;DHT22;4927;52.472;13.108;2023-05-07T03:24:58;8.60;99.90
9776;DHT22;4927;52.472;13.108;2023-05-07T03:26:00;8.50;99.90
9776;DHT22;4927;52.472;13.108;2023-05-07T03:27:01;8.50;99.90
9776;DHT22;4927;52.472;13.108;2023-05-07T03:28:03;8.50;99.90
9776;DHT22;4927;52.472;13.108;2023-05-07T03:29:05;8.60;99.90
9776;DHT22;4927;52.472;13.108;2023-05-07T03:30:08;8.60;99.90
9776;DHT22;4927;52.472;13.108;2023-05-07T03:31:10;8.60;99.90
9776;DHT22;4927;52.472;13.108;2023-05-07T03:32:13;8.60;99.90
9776;DHT22;4927;52.472;13.108;2023-05-07T03:33:14;8.50;99.90
9776;DHT22;4927;52.472;13.108;2023-05-07T03:34:16;8.50;99.90
9776;DHT22;4927;52.472;13.108;2023-05-07T03:35:18;8.50;99.90
9776;DHT22;4927;52.472;13.108;2023-05-07T03:36:20;8.60;99.90
9776;DHT22;4927;52.472;13.108;2023-05-07T03:37:21;8.60;99.90
9776;DHT22;4927;52.472;13.108;2023-05-07T03:38:23;8.60;99.90
9776;DHT22;4927;52.472;13.108;2023-05-07T03:39:24;8.60;99.90
9776;DHT22;4927;52.472;13.108;2023-05-07T03:40:26;8.60;99.90
9776;DHT22;4927;52.472;13.108;2023-05-07T03:41:28;8.60;99.90
9776;DHT22;4927;52.472;13.108;2023-05-07T03:42:29;8.60;99.90
9776;DHT22;4927;52.472;13.108;2023-05-07T03:43:31;8.60;99.90
9776;DHT22;4927;52.472;13.108;2023-05-07T03:44:33;8.60;99.90
9776;DHT22;4927;52.472;13.108;2023-05-07T03:45:35;8.60;99.90
9776;DHT22;4927;52.472;13.108;2023-05-07T03:46:36;8.60;99.90
9776;DHT22;4927;52.472;13.108;2023-05-07T03:47:38;8.60;99.90
9776;DHT22;4927;52.472;13.108;2023-05-07T03:48:40;8.60;99.90
9776;DHT22;4927;52.472;13.108;2023-05-07T03:49:41;8.60;99.90
9776;DHT22;4927;52.472;13.108;2023-05-07T03:50:43;8.60;99.90
9776;DHT22;4927;52.472;13.108;2023-05-07T03:51:44;8.60;99.90
9776;DHT22;4927;52.472;13.108;2023-05-07T03:52:46;8.60;99.90
9776;DHT22;4927;52.472;13.108;2023-05-07T03:53:48;8.60;99.90
9776;DHT22;4927;52.472;13.108;2023-05-07T03:54:52;8.50;99.90
9776;DHT22;4927;52.472;13.108;2023-05-07T03:55:53;8.60;99.90
9776;DHT22;4927;52.472;13.108;2023-05-07T03:56:55;8.50;99.90
9776;DHT22;4927;52.472;13.108;2023-05-07T03:57:56;8.50;99.90
9776;DHT22;4927;52.472;13.108;2023-05-07T03:58:58;8.50;99.90
9776;DHT22;4927;52.472;13.108;2023-05-07T03:59:59;8.50;99.90
9776;DHT22;4927;52.472;13.108;2023-05-07T04:01:01;8.50;99.90
9776;DHT22;4927;52.472;13.108;2023-05-07T04:02:03;8.50;99.90
9776;DHT22;4927;52.472;13.108;2023-05-07T04:03:05;8.50;99.90
9776;DHT22;4927;52.472;13.108;2023-05-07T04:04:06;8.50;99.90
9776;DHT22;4927;52.472;13.108;2023-05-07T04:05:08;8.50;99.90
9776;DHT22;4927;52.472;13.108;2023-05-07T04:06:10;8.50;99.90
9776;DHT22;4927;52.472;13.108;2023-05-07T04:07:11;8.50;99.90
9776;DHT22;4927;52.472;13.108;2023-05-07T04:08:13;8.50;99.90
9776;DHT22;4927;52.472;13.108;2023-05-07T04:09:14;8.50;99.90
9776;DHT22;4927;52.472;13.108;2023-05-07T04:10:16;8.50;99.90
9776;DHT22;4927;52.472;13.108;2023-05-07T04:11:18;8.50;99.90
9776;DHT22;4927;52.472;13.108;2023-05-07T04:12:19;8.50;99.90
9776;DHT22;4927;52.472;13.108;2023-05-07T04:13:21;8.50;99.90
9776;DHT22;4927;52.472;13.108;2023-05-07T04:14:29;8.50;99.90
9776;DHT22;4927;52.472;13.108;2023-05-07T04:15:31;8.50;99.90
9776;DHT22;4927;52.472;13.108;2023-05-07T04:16:34;8.50;99.90
9776;DHT22;4927;52.472;13.108;2023-05-07T04:17:34;8.50;99.90
9776;DHT22;4927;52.472;13.108;2023-05-07T04:18:36;8.50;99.90
9776;DHT22;4927;52.472;13.108;2023-05-07T04:19:38;8.50;99.90
9776;DHT22;4927;52.472;13.108;2023-05-07T04:20:40;8.50;99.90
9776;DHT22;4927;52.472;13.108;2023-05-07T04:21:41;8.50;99.90
9776;DHT22;4927;52.472;13.108;2023-05-07T04:22:43;8.50;99.90
9776;DHT22;4927;52.472;13.108;2023-05-07T04:23:46;8.60;99.90
9776;DHT22;4927;52.472;13.108;2023-05-07T04:24:48;8.60;99.90
9776;DHT22;4927;52.472;13.108;2023-05-07T04:25:50;8.60;99.90
9776;DHT22;4927;52.472;13.108;2023-05-07T04:26:51;8.60;99.90
9776;DHT22;4927;52.472;13.108;2023-05-07T04:27:53;8.60;99.90
9776;DHT22;4927;52.472;13.108;2023-05-07T04:28:54;8.60;99.90
9776;DHT22;4927;52.472;13.108;2023-05-07T04:29:56;8.60;99.90
9776;DHT22;4927;52.472;13.108;2023-05-07T04:32:14;8.60;99.90
9776;DHT22;4927;52.472;13.108;2023-05-07T04:33:16;8.60;99.90
9776;DHT22;4927;52.472;13.108;2023-05-07T04:34:18;8.60;99.90
9776;DHT22;4927;52.472;13.108;2023-05-07T04:35:19;8.60;99.90
9776;DHT22;4927;52.472;13.108;2023-05-07T04:36:22;8.60;99.90
9776;DHT22;4927;52.472;13.108;2023-05-07T04:37:25;8.60;99.90
9776;DHT22;4927;52.472;13.108;2023-05-07T04:38:26;8.60;99.90
9776;DHT22;4927;52.472;13.108;2023-05-07T04:39:28;8.60;99.90
9776;DHT22;4927;52.472;13.108;2023-05-07T04:40:29;8.60;99.90
9776;DHT22;4927;52.472;13.108;2023-05-07T04:41:31;8.60;99.90
9776;DHT22;4927;52.472;13.108;2023-05-07T04:42:32;8.60;99.90
9776;DHT22;4927;52.472;13.108;2023-05-07T04:43:34;8.60;99.90
9776;DHT22;4927;52.472;13.108;2023-05-07T04:44:52;8.60;99.90
9776;DHT22;4927;52.472;13.108;2023-05-07T04:45:53;8.70;99.90
9776;DHT22;4927;52.472;13.108;2023-05-07T04:46:55;8.70;99.90
9776;DHT22;4927;52.472;13.108;2023-05-07T04:47:56;8.70;99.90
9776;DHT22;4927;52.472;13.108;2023-05-07T04:48:58;8.70;99.90
9776;DHT22;4927;52.472;13.108;2023-05-07T04:50:00;8.70;99.90
9776;DHT22;4927;52.472;13.108;2023-05-07T04:51:02;8.70;99.90
9776;DHT22;4927;52.472;13.108;2023-05-07T04:52:04;8.70;99.90
9776;DHT22;4927;52.472;13.108;2023-05-07T04:53:05;8.70;99.90
9776;DHT22;4927;52.472;13.108;2023-05-07T04:54:07;8.70;99.90
9776;DHT22;4927;52.472;13.108;2023-05-07T04:55:09;8.70;99.90
9776;DHT22;4927;52.472;13.108;2023-05-07T04:56:11;8.60;99.90
9776;DHT22;4927;52.472;13.108;2023-05-07T04:57:13;8.70;99.90
9776;DHT22;4927;52.472;13.108;2023-05-07T04:58:15;8.70;99.90
9776;DHT22;4927;52.472;13.108;2023-05-07T04:59:16;8.70;99.90
9776;DHT22;4927;52.472;13.108;2023-05-07T05:00:18;8.70;99.90
9776;DHT22;4927;52.472;13.108;2023-05-07T05:01:20;8.70;99.90
9776;DHT22;4927;52.472;13.108;2023-05-07T05:02:22;8.70;99.90
9776;DHT22;4927;52.472;13.108;2023-05-07T05:03:24;8.70;99.90
9776;DHT22;4927;52.472;13.108;2023-05-07T05:04:25;8.70;99.90
9776;DHT22;4927;52.472;13.108;2023-05-07T05:05:27;8.70;99.90
9776;DHT22;4927;52.472;13.108;2023-05-07T05:06:29;8.70;99.90
9776;DHT22;4927;52.472;13.108;2023-05-07T05:07:30;8.70;99.90
9776;DHT22;4927;52.472;13.108;2023-05-07T05:08:32;8.70;99.90
9776;DHT22;4927;52.472;13.108;2023-05-07T05:09:34;8.70;99.90
9776;DHT22;4927;52.472;13.108;2023-05-07T05:10:36;8.70;99.90
9776;DHT22;4927;52.472;13.108;2023-05-07T05:11:38;8.70;99.90
9776;DHT22;4927;52.472;13.108;2023-05-07T05:12:39;8.70;99.90
9776;DHT22;4927;52.472;13.108;2023-05-07T05:13:42;8.70;99.90
9776;DHT22;4927;52.472;13.108;2023-05-07T05:14:44;8.80;99.90
9776;DHT22;4927;52.472;13.108;2023-05-07T05:15:46;8.80;99.90
9776;DHT22;4927;52.472;13.108;2023-05-07T05:16:48;8.80;99.90
9776;DHT22;4927;52.472;13.108;2023-05-07T05:17:50;8.80;99.90
9776;DHT22;4927;52.472;13.108;2023-05-07T05:18:52;8.80;99.90
9776;DHT22;4927;52.472;13.108;2023-05-07T05:19:54;8.80;99.90
9776;DHT22;4927;52.472;13.108;2023-05-07T05:20:55;8.80;99.90
9776;DHT22;4927;52.472;13.108;2023-05-07T05:21:57;8.80;99.90
9776;DHT22;4927;52.472;13.108;2023-05-07T05:22:58;8.80;99.90
9776;DHT22;4927;52.472;13.108;2023-05-07T05:24:00;8.80;99.90
9776;DHT22;4927;52.472;13.108;2023-05-07T05:25:02;8.80;99.90
9776;DHT22;4927;52.472;13.108;2023-05-07T05:26:04;8.80;99.90
9776;DHT22;4927;52.472;13.108;2023-05-07T05:27:05;8.80;99.90
9776;DHT22;4927;52.472;13.108;2023-05-07T05:28:07;8.80;99.90
9776;DHT22;4927;52.472;13.108;2023-05-07T05:29:09;8.80;99.90
9776;DHT22;4927;52.472;13.108;2023-05-07T05:30:11;8.80;99.90
9776;DHT22;4927;52.472;13.108;2023-05-07T05:31:13;8.80;99.90
9776;DHT22;4927;52.472;13.108;2023-05-07T05:32:16;8.80;99.90
9776;DHT22;4927;52.472;13.108;2023-05-07T05:33:18;8.80;99.90
9776;DHT22;4927;52.472;13.108;2023-05-07T05:34:20;8.80;99.90
9776;DHT22;4927;52.472;13.108;2023-05-07T05:35:21;8.80;99.90
9776;DHT22;4927;52.472;13.108;2023-05-07T05:36:24;8.80;99.90
9776;DHT22;4927;52.472;13.108;2023-05-07T05:37:25;8.80;99.90
9776;DHT22;4927;52.472;13.108;2023-05-07T05:38:27;8.80;99.90
9776;DHT22;4927;52.472;13.108;2023-05-07T05:39:29;8.70;99.90
9776;DHT22;4927;52.472;13.108;2023-05-07T05:40:31;8.80;99.90
9776;DHT22;4927;52.472;13.108;2023-05-07T05:41:32;8.80;99.90
9776;DHT22;4927;52.472;13.108;2023-05-07T05:42:34;8.80;99.90
9776;DHT22;4927;52.472;13.108;2023-05-07T05:43:37;8.80;99.90
9776;DHT22;4927;52.472;13.108;2023-05-07T05:44:38;8.80;99.90
9776;DHT22;4927;52.472;13.108;2023-05-07T05:45:40;8.80;99.90
9776;DHT22;4927;52.472;13.108;2023-05-07T05:46:42;8.80;99.90
9776;DHT22;4927;52.472;13.108;2023-05-07T05:47:44;8.90;99.90
9776;DHT22;4927;52.472;13.108;2023-05-07T05:48:46;8.90;99.90
9776;DHT22;4927;52.472;13.108;2023-05-07T05:49:47;8.90;99.90
9776;DHT22;4927;52.472;13.108;2023-05-07T05:50:49;8.90;99.90
9776;DHT22;4927;52.472;13.108;2023-05-07T05:51:51;9.00;99.90
9776;DHT22;4927;52.472;13.108;2023-05-07T05:52:53;9.00;99.90
9776;DHT22;4927;52.472;13.108;2023-05-07T05:53:54;9.00;99.90
9776;DHT22;4927;52.472;13.108;2023-05-07T05:54:56;9.00;99.90
9776;DHT22;4927;52.472;13.108;2023-05-07T05:55:58;9.10;99.90
9776;DHT22;4927;52.472;13.108;2023-05-07T05:56:59;9.10;99.90
9776;DHT22;4927;52.472;13.108;2023-05-07T05:58:01;9.10;99.90
9776;DHT22;4927;52.472;13.108;2023-05-07T05:59:02;9.20;99.90
9776;DHT22;4927;52.472;13.108;2023-05-07T06:00:05;9.20;99.90
9776;DHT22;4927;52.472;13.108;2023-05-07T06:01:08;9.20;99.90
9776;DHT22;4927;52.472;13.108;2023-05-07T06:02:09;9.30;99.90
9776;DHT22;4927;52.472;13.108;2023-05-07T06:03:11;9.30;99.90
9776;DHT22;4927;52.472;13.108;2023-05-07T06:04:13;9.30;99.90
9776;DHT22;4927;52.472;13.108;2023-05-07T06:05:15;9.30;99.90
9776;DHT22;4927;52.472;13.108;2023-05-07T06:06:17;9.40;99.90
9776;DHT22;4927;52.472;13.108;2023-05-07T06:07:25;9.40;99.90
9776;DHT22;4927;52.472;13.108;2023-05-07T06:08:29;9.40;99.90
9776;DHT22;4927;52.472;13.108;2023-05-07T06:09:30;9.40;99.90
9776;DHT22;4927;52.472;13.108;2023-05-07T06:10:33;9.50;99.90
9776;DHT22;4927;52.472;13.108;2023-05-07T06:11:35;9.50;99.90
9776;DHT22;4927;52.472;13.108;2023-05-07T06:12:36;9.50;99.90
9776;DHT22;4927;52.472;13.108;2023-05-07T06:13:38;9.50;99.90
9776;DHT22;4927;52.472;13.108;2023-05-07T06:14:40;9.50;99.90
9776;DHT22;4927;52.472;13.108;2023-05-07T06:15:41;9.50;99.90
9776;DHT22;4927;52.472;13.108;2023-05-07T06:16:43;9.50;99.90
9776;DHT22;4927;52.472;13.108;2023-05-07T06:17:45;9.50;99.90
9776;DHT22;4927;52.472;13.108;2023-05-07T06:18:46;9.60;99.90
9776;DHT22;4927;52.472;13.108;2023-05-07T06:19:48;9.60;99.90
9776;DHT22;4927;52.472;13.108;2023-05-07T06:20:49;9.60;99.90
9776;DHT22;4927;52.472;13.108;2023-05-07T06:21:51;9.60;99.90
9776;DHT22;4927;52.472;13.108;2023-05-07T06:22:53;9.60;99.90
9776;DHT22;4927;52.472;13.108;2023-05-07T06:23:54;9.60;99.90
9776;DHT22;4927;52.472;13.108;2023-05-07T06:24:56;9.60;99.90
9776;DHT22;4927;52.472;13.108;2023-05-07T06:25:57;9.60;99.90
9776;DHT22;4927;52.472;13.108;2023-05-07T06:26:59;9.70;99.90
9776;DHT22;4927;52.472;13.108;2023-05-07T06:28:01;9.70;99.90
9776;DHT22;4927;52.472;13.108;2023-05-07T06:29:02;9.80;99.90
9776;DHT22;4927;52.472;13.108;2023-05-07T06:30:06;9.80;99.90
9776;DHT22;4927;52.472;13.108;2023-05-07T06:31:13;9.90;99.90
9776;DHT22;4927;52.472;13.108;2023-05-07T06:32:15;9.90;99.90
9776;DHT22;4927;52.472;13.108;2023-05-07T06:33:16;10.00;99.90
9776;DHT22;4927;52.472;13.108;2023-05-07T06:34:18;10.00;99.90
9776;DHT22;4927;52.472;13.108;2023-05-07T06:35:19;10.00;99.90
9776;DHT22;4927;52.472;13.108;2023-05-07T06:36:21;10.00;99.90
9776;DHT22;4927;52.472;13.108;2023-05-07T06:37:24;10.10;99.90
9776;DHT22;4927;52.472;13.108;2023-05-07T06:38:25;10.10;99.90
9776;DHT22;4927;52.472;13.108;2023-05-07T06:39:27;10.20;99.90
9776;DHT22;4927;52.472;13.108;2023-05-07T06:40:30;10.20;99.90
9776;DHT22;4927;52.472;13.108;2023-05-07T06:41:31;10.20;99.90
9776;DHT22;4927;52.472;13.108;2023-05-07T06:42:33;10.20;99.90
9776;DHT22;4927;52.472;13.108;2023-05-07T06:43:35;10.30;99.90
9776;DHT22;4927;52.472;13.108;2023-05-07T06:44:36;10.30;99.90
9776;DHT22;4927;52.472;13.108;2023-05-07T06:45:38;10.30;99.90